createdAt,value
2019-05-17T00:00:01.521Z,7.60
2019-05-17T00:04:07.029Z,7.70
2019-05-17T00:08:08.644Z,7.70
2019-05-17T00:12:10.622Z,7.60
2019-05-17T00:16:12.533Z,7.60
2019-05-17T00:20:17.334Z,7.60
2019-05-17T00:24:19.478Z,7.60
2019-05-17T00:28:21.381Z,7.50
2019-05-17T00:32:23.278Z,7.50
2019-05-17T00:36:26.910Z,7.50
2019-05-17T00:40:30.014Z,7.50
2019-05-17T00:44:31.908Z,7.50
2019-05-17T00:48:33.907Z,7.50
2019-05-17T00:52:36.788Z,7.50
2019-05-17T00:56:39.924Z,7.50
2019-05-17T01:00:41.835Z,7.50
2019-05-17T01:04:43.756Z,7.50
2019-05-17T01:08:47.482Z,7.50
2019-05-17T01:12:49.322Z,7.50
2019-05-17T01:16:51.306Z,7.60
2019-05-17T01:20:53.219Z,7.70
2019-05-17T01:24:56.958Z,7.70
2019-05-17T01:28:59.173Z,7.50
2019-05-17T01:33:01.215Z,7.60
2019-05-17T01:37:03.123Z,7.50
2019-05-17T01:41:07.011Z,7.50
2019-05-17T01:45:10.325Z,7.50
2019-05-17T01:49:12.246Z,7.40
2019-05-17T01:53:16.455Z,7.40
2019-05-17T01:57:17.760Z,7.40
2019-05-17T02:01:19.650Z,7.30
2019-05-17T02:05:21.642Z,7.40
2019-05-17T02:09:34.917Z,7.40
2019-05-17T02:13:27.438Z,7.30
2019-05-17T02:17:29.488Z,7.40
2019-05-17T02:21:31.413Z,7.30
2019-05-17T02:25:33.310Z,7.30
2019-05-17T02:29:35.220Z,7.30
2019-05-17T02:33:37.192Z,7.30
2019-05-17T02:37:42.953Z,7.30
2019-05-17T02:41:44.242Z,7.30
2019-05-17T02:45:46.142Z,7.30
2019-05-17T02:49:48.093Z,7.30
2019-05-17T02:53:52.553Z,7.30
2019-05-17T02:57:53.616Z,7.30
2019-05-17T03:01:55.497Z,7.30
2019-05-17T03:05:57.413Z,7.30
2019-05-17T03:10:13.888Z,7.40
2019-05-17T03:14:04.119Z,7.30
2019-05-17T03:18:06.320Z,7.30
2019-05-17T03:22:13.142Z,7.40
2019-05-17T03:26:15.269Z,7.30
2019-05-17T03:30:19.275Z,7.20
2019-05-17T03:34:26.708Z,7.30
2019-05-17T03:38:27.527Z,7.20
2019-05-17T03:42:29.424Z,7.30
2019-05-17T03:46:33.462Z,7.20
2019-05-17T03:50:35.402Z,7.20
2019-05-17T03:54:37.283Z,7.20
2019-05-17T03:58:39.178Z,7.20
2019-05-17T04:02:44.621Z,7.30
2019-05-17T04:06:44.690Z,7.20
2019-05-17T04:10:46.588Z,7.20
2019-05-17T04:14:48.506Z,7.20
2019-05-17T04:18:53.316Z,7.30
2019-05-17T04:22:58.641Z,7.30
2019-05-17T04:27:03.627Z,7.40
2019-05-17T04:31:05.091Z,7.40
2019-05-17T04:35:07.306Z,7.50
2019-05-17T04:39:13.106Z,7.60
2019-05-17T04:43:13.854Z,7.70
2019-05-17T04:47:15.935Z,7.60
2019-05-17T04:51:17.840Z,7.80
2019-05-17T04:55:22.827Z,7.80
2019-05-17T04:59:24.299Z,7.80
2019-05-17T05:03:26.516Z,7.80
2019-05-17T05:07:29.506Z,8.00
2019-05-17T05:11:32.869Z,8.00
2019-05-17T05:15:44.924Z,8.20
2019-05-17T05:19:46.858Z,8.30
2019-05-17T05:23:48.754Z,8.40
2019-05-17T05:27:51.648Z,8.60
2019-05-17T05:31:53.543Z,8.60
2019-05-17T05:35:56.090Z,8.60
2019-05-17T05:40:07.132Z,8.50
2019-05-17T05:44:09.101Z,8.60
2019-05-17T05:48:12.877Z,8.80
2019-05-17T05:52:15.079Z,8.80
2019-05-17T05:56:17.005Z,8.90
2019-05-17T06:00:22.126Z,8.80
2019-05-17T06:04:24.330Z,9.00
2019-05-17T06:08:26.191Z,8.90
2019-05-17T06:12:28.366Z,9.10
2019-05-17T06:16:32.124Z,9.20
2019-05-17T06:20:33.908Z,10.00
2019-05-17T06:24:35.843Z,9.20
2019-05-17T06:28:37.739Z,9.40
2019-05-17T06:32:42.721Z,9.40
2019-05-17T06:36:43.439Z,9.50
2019-05-17T06:40:45.347Z,9.50
2019-05-17T06:44:47.369Z,9.50
2019-05-17T06:48:50.080Z,9.70
2019-05-17T06:52:53.235Z,9.80
2019-05-17T06:56:55.275Z,10.00
2019-05-17T07:00:57.177Z,10.10
2019-05-17T07:05:01.433Z,10.30
2019-05-17T07:09:05.298Z,10.60
2019-05-17T07:13:10.734Z,10.70
2019-05-17T07:17:12.359Z,10.80
2019-05-17T07:21:16.247Z,11.00
2019-05-17T07:25:19.819Z,11.20
2019-05-17T07:29:22.975Z,11.20
2019-05-17T07:33:24.897Z,11.20
2019-05-17T07:37:26.827Z,11.20
2019-05-17T07:41:29.853Z,11.40
2019-05-17T07:45:31.868Z,11.50
2019-05-17T07:49:33.804Z,11.70
2019-05-17T07:53:35.725Z,11.90
2019-05-17T07:57:37.638Z,12.10
2019-05-17T08:01:41.268Z,12.20
2019-05-17T08:05:43.399Z,12.40
2019-05-17T08:09:45.317Z,12.30
2019-05-17T08:13:47.241Z,12.30
2019-05-17T08:17:50.170Z,12.50
2019-05-17T08:21:52.237Z,12.50
2019-05-17T08:25:56.292Z,12.70
2019-05-17T08:29:59.700Z,13.00
2019-05-17T08:34:01.527Z,13.20
2019-05-17T08:38:03.429Z,13.80
2019-05-17T08:42:09.627Z,13.80
2019-05-17T08:46:10.727Z,14.10
2019-05-17T08:50:12.970Z,14.20
2019-05-17T08:54:14.904Z,14.30
2019-05-17T08:58:16.829Z,14.60
2019-05-17T09:02:19.907Z,14.70
2019-05-17T09:06:21.929Z,14.70
2019-05-17T09:10:24.625Z,14.60
2019-05-17T09:14:26.538Z,14.70
2019-05-17T09:18:30.205Z,14.80
2019-05-17T09:22:33.164Z,14.60
2019-05-17T09:26:35.120Z,14.70
2019-05-17T09:30:37.096Z,14.80
2019-05-17T09:34:40.379Z,14.80
2019-05-17T09:38:43.552Z,15.10
2019-05-17T09:42:45.455Z,15.30
2019-05-17T09:46:47.433Z,15.20
2019-05-17T09:50:50.485Z,15.40
2019-05-17T09:54:52.541Z,15.30
2019-05-17T09:58:54.449Z,15.80
2019-05-17T10:02:56.725Z,15.60
2019-05-17T10:06:59.359Z,15.40
2019-05-17T10:11:08.414Z,15.30
2019-05-17T10:15:10.011Z,15.70
2019-05-17T10:19:11.589Z,15.90
2019-05-17T10:23:13.572Z,16.00
2019-05-17T10:27:15.500Z,16.30
2019-05-17T10:31:19.723Z,16.40
2019-05-17T10:35:21.828Z,16.50
2019-05-17T10:39:23.719Z,16.50
2019-05-17T10:43:25.642Z,16.40
2019-05-17T10:47:29.921Z,16.50
2019-05-17T10:51:31.308Z,16.50
2019-05-17T10:55:33.218Z,16.40
2019-05-17T10:59:35.135Z,16.70
2019-05-17T11:03:39.581Z,17.20
2019-05-17T11:07:40.651Z,17.60
2019-05-17T11:11:42.588Z,18.00
2019-05-17T11:15:44.482Z,18.20
2019-05-17T11:19:46.405Z,18.20
2019-05-17T11:23:48.325Z,18.50
2019-05-17T11:27:50.259Z,18.70
2019-05-17T11:31:52.171Z,19.20
2019-05-17T11:35:54.559Z,19.60
2019-05-17T11:39:56.453Z,19.50
2019-05-17T11:43:58.376Z,19.40
2019-05-17T11:48:00.292Z,19.70
2019-05-17T11:52:02.211Z,20.20
2019-05-17T11:56:04.110Z,19.70
2019-05-17T12:00:09.341Z,19.20
2019-05-17T12:04:11.282Z,18.40
2019-05-17T12:08:13.174Z,18.20
2019-05-17T12:12:15.088Z,18.40
2019-05-17T12:16:17.009Z,18.70
2019-05-17T12:20:19.623Z,19.30
2019-05-17T12:24:21.538Z,19.20
2019-05-17T12:28:23.450Z,19.20
2019-05-17T12:32:25.432Z,19.90
2019-05-17T12:36:27.354Z,20.60
2019-05-17T12:40:29.257Z,21.00
2019-05-17T12:44:31.169Z,20.90
2019-05-17T12:48:33.090Z,20.30
2019-05-17T12:52:35.002Z,19.80
2019-05-17T12:56:36.927Z,19.80
2019-05-17T13:00:38.830Z,20.40
2019-05-17T13:04:40.744Z,20.60
2019-05-17T13:08:42.671Z,20.60
2019-05-17T13:12:44.603Z,20.10
2019-05-17T13:16:46.517Z,20.20
2019-05-17T13:20:48.418Z,20.00
2019-05-17T13:24:50.336Z,20.70
2019-05-17T13:28:52.336Z,21.30
2019-05-17T13:32:54.265Z,22.00
2019-05-17T13:36:56.504Z,22.50
2019-05-17T13:40:58.405Z,22.20
2019-05-17T13:45:00.452Z,22.30
2019-05-17T13:49:02.475Z,23.40
2019-05-17T13:53:04.511Z,23.20
2019-05-17T13:57:06.448Z,23.50
2019-05-17T14:01:09.734Z,23.70
2019-05-17T14:05:11.918Z,23.60
2019-05-17T14:09:13.815Z,23.00
2019-05-17T14:13:15.729Z,21.90
2019-05-17T14:17:18.595Z,21.50
2019-05-17T14:21:20.785Z,21.00
2019-05-17T14:25:22.698Z,20.80
2019-05-17T14:29:25.635Z,21.20
2019-05-17T14:33:27.702Z,21.00
2019-05-17T14:37:29.616Z,20.60
2019-05-17T14:41:31.524Z,19.60
2019-05-17T14:45:33.428Z,19.70
2019-05-17T14:49:35.339Z,20.40
2019-05-17T14:53:37.248Z,20.80
2019-05-17T14:57:42.765Z,20.80
2019-05-17T15:01:42.790Z,21.20
2019-05-17T15:05:44.794Z,21.70
2019-05-17T15:09:46.709Z,21.60
2019-05-17T15:13:48.709Z,21.00
2019-05-17T15:17:50.613Z,20.60
2019-05-17T15:21:52.517Z,21.10
2019-05-17T15:25:54.438Z,22.00
2019-05-17T15:29:56.332Z,21.70
2019-05-17T15:33:58.252Z,21.70
2019-05-17T15:38:00.213Z,21.90
2019-05-17T15:42:02.948Z,22.20
2019-05-17T15:46:04.922Z,22.10
2019-05-17T15:50:08.817Z,21.80
2019-05-17T15:54:10.980Z,21.30
2019-05-17T15:58:12.898Z,21.20
2019-05-17T16:02:14.804Z,21.30
2019-05-17T16:06:16.792Z,21.30
2019-05-17T16:10:20.012Z,20.80
2019-05-17T16:14:21.907Z,21.00
2019-05-17T16:18:23.819Z,20.90
2019-05-17T16:22:25.722Z,20.90
2019-05-17T16:26:27.908Z,20.60
2019-05-17T16:30:29.883Z,20.70
2019-05-17T16:34:31.802Z,20.50
2019-05-17T16:38:33.721Z,20.40
2019-05-17T16:42:35.802Z,20.40
2019-05-17T16:46:37.715Z,20.50
2019-05-17T16:50:39.689Z,20.40
2019-05-17T16:54:41.604Z,20.20
2019-05-17T16:58:44.475Z,20.20
2019-05-17T17:02:46.386Z,20.20
2019-05-17T17:06:48.289Z,20.20
2019-05-17T17:10:50.258Z,20.10
2019-05-17T17:14:52.131Z,19.40
2019-05-17T17:18:54.115Z,19.00
2019-05-17T17:22:57.197Z,18.70
2019-05-17T17:27:00.295Z,18.30
2019-05-17T17:31:02.428Z,18.10
2019-05-17T17:35:06.844Z,17.90
2019-05-17T17:39:08.947Z,17.90
2019-05-17T17:43:11.004Z,17.60
2019-05-17T17:47:12.929Z,17.40
2019-05-17T17:51:14.867Z,17.20
2019-05-17T17:55:16.867Z,17.10
2019-05-17T17:59:18.785Z,16.90
2019-05-17T18:03:20.701Z,16.70
2019-05-17T18:07:23.486Z,16.60
2019-05-17T18:11:25.414Z,16.30
2019-05-17T18:15:34.918Z,16.20
2019-05-17T18:19:36.814Z,16.10
2019-05-17T18:23:38.737Z,16.00
2019-05-17T18:27:40.728Z,15.80
2019-05-17T18:31:42.641Z,15.60
2019-05-17T18:35:44.701Z,15.50
2019-05-17T18:39:46.614Z,15.30
2019-05-17T18:43:50.171Z,15.30
2019-05-17T18:47:52.364Z,15.10
2019-05-17T18:51:54.314Z,15.00
2019-05-17T18:55:56.247Z,14.90
2019-05-17T18:59:58.186Z,14.70
2019-05-17T19:04:00.099Z,14.70
2019-05-17T19:08:02.342Z,14.50
2019-05-17T19:12:04.393Z,14.40
2019-05-17T19:16:07.341Z,14.20
2019-05-17T19:20:09.680Z,14.00
2019-05-17T19:24:11.573Z,13.80
2019-05-17T19:28:13.490Z,13.70
2019-05-17T19:32:15.494Z,13.60
2019-05-17T19:36:17.397Z,13.30
2019-05-17T19:40:19.524Z,13.10
2019-05-17T19:44:21.444Z,11.60
2019-05-17T19:48:23.349Z,12.70
2019-05-17T19:52:25.313Z,12.60
2019-05-17T19:56:27.235Z,12.50
2019-05-17T20:00:29.763Z,12.40
2019-05-17T20:04:31.704Z,12.30
2019-05-17T20:08:33.783Z,12.20
2019-05-17T20:12:35.696Z,12.10
2019-05-17T20:16:37.686Z,12.00
2019-05-17T20:20:39.597Z,11.80
2019-05-17T20:24:41.516Z,11.80
2019-05-17T20:28:43.497Z,11.60
2019-05-17T20:32:45.509Z,11.50
2019-05-17T20:36:47.412Z,11.40
2019-05-17T20:40:49.388Z,11.30
2019-05-17T20:44:51.311Z,11.20
2019-05-17T20:48:54.904Z,11.10
2019-05-17T20:52:56.814Z,10.90
2019-05-17T20:56:58.721Z,10.90
2019-05-17T21:01:00.654Z,10.80
2019-05-17T21:05:02.733Z,10.70
2019-05-17T21:09:06.740Z,10.60
2019-05-17T21:13:08.645Z,10.50
2019-05-17T21:17:10.597Z,10.40
2019-05-17T21:21:12.563Z,10.30
2019-05-17T21:25:14.707Z,10.20
2019-05-17T21:29:16.645Z,10.10
2019-05-17T21:33:18.524Z,10.10
2019-05-17T21:37:20.535Z,10.00
2019-05-17T21:41:22.511Z,9.90
2019-05-17T21:45:24.431Z,9.70
2019-05-17T21:49:26.322Z,9.60
2019-05-17T21:53:28.254Z,9.60
2019-05-17T21:57:30.149Z,9.50
2019-05-17T22:01:34.753Z,9.60
2019-05-17T22:05:36.650Z,9.40
2019-05-17T22:09:39.517Z,9.30
2019-05-17T22:13:41.428Z,9.20
2019-05-17T22:17:43.320Z,9.10
2019-05-17T22:21:45.239Z,9.10
2019-05-17T22:25:47.196Z,9.00
2019-05-17T22:29:49.106Z,8.90
2019-05-17T22:33:50.986Z,8.80
2019-05-17T22:37:52.906Z,8.80
2019-05-17T22:41:54.783Z,8.70
2019-05-17T22:45:56.805Z,8.60
2019-05-17T22:49:58.694Z,8.60
2019-05-17T22:54:00.613Z,8.50
2019-05-17T22:58:02.535Z,8.50
2019-05-17T23:02:05.510Z,8.40
2019-05-17T23:06:07.539Z,8.30
2019-05-17T23:10:09.625Z,8.30
2019-05-17T23:14:11.538Z,8.20
2019-05-17T23:18:13.459Z,8.10
2019-05-17T23:22:15.347Z,8.10
2019-05-17T23:26:17.249Z,8.00
2019-05-17T23:30:19.213Z,8.10
2019-05-17T23:34:21.159Z,8.00
2019-05-17T23:38:23.056Z,7.90
2019-05-17T23:42:24.944Z,7.80
2019-05-17T23:46:26.843Z,7.80
2019-05-17T23:50:28.749Z,7.70
2019-05-17T23:54:30.636Z,7.70
2019-05-17T23:58:32.542Z,7.70
